createdAt,value
2019-03-31T00:01:30.786Z,21.93
2019-03-31T00:06:35.126Z,21.94
2019-03-31T00:11:39.571Z,21.94
2019-03-31T00:16:43.922Z,21.93
2019-03-31T00:21:48.441Z,21.93
2019-03-31T00:26:52.752Z,21.94
2019-03-31T00:31:57.074Z,21.93
2019-03-31T00:37:01.559Z,21.93
2019-03-31T00:42:05.870Z,21.92
2019-03-31T00:47:10.328Z,21.93
2019-03-31T00:52:14.631Z,21.93
2019-03-31T00:57:18.954Z,21.93
2019-03-31T01:02:26.387Z,21.93
2019-03-31T01:07:30.723Z,21.93
2019-03-31T01:12:35.166Z,21.93
2019-03-31T01:17:39.558Z,21.93
2019-03-31T01:22:43.846Z,21.93
2019-03-31T01:27:48.556Z,21.93
2019-03-31T01:32:54.215Z,21.93
2019-03-31T01:37:58.525Z,21.93
2019-03-31T01:43:02.801Z,21.93
2019-03-31T01:48:07.236Z,21.92
2019-03-31T01:53:11.541Z,21.92
2019-03-31T01:58:15.998Z,21.91
2019-03-31T02:03:20.766Z,21.91
2019-03-31T02:08:25.057Z,21.89
2019-03-31T02:13:29.435Z,21.89
2019-03-31T02:18:33.774Z,21.89
2019-03-31T02:23:38.103Z,21.89
2019-03-31T02:28:42.409Z,21.87
2019-03-31T02:33:46.701Z,21.87
2019-03-31T02:38:51.274Z,21.85
2019-03-31T02:43:55.654Z,21.83
2019-03-31T02:49:00.020Z,21.85
2019-03-31T02:54:04.435Z,21.81
2019-03-31T02:59:09.060Z,21.79
2019-03-31T03:04:13.408Z,21.77
2019-03-31T03:09:17.735Z,21.77
2019-03-31T03:14:22.040Z,21.74
2019-03-31T03:19:26.389Z,21.74
2019-03-31T03:24:30.747Z,21.73
2019-03-31T03:29:35.046Z,21.72
2019-03-31T03:34:39.378Z,21.73
2019-03-31T03:39:43.745Z,21.74
2019-03-31T03:44:48.116Z,21.75
2019-03-31T03:49:53.734Z,21.75
2019-03-31T03:54:58.072Z,21.70
2019-03-31T04:00:02.452Z,21.73
2019-03-31T04:05:06.854Z,21.68
2019-03-31T04:10:44.360Z,21.67
2019-03-31T04:15:48.793Z,21.66
2019-03-31T04:20:53.169Z,21.65
2019-03-31T04:25:57.470Z,21.63
2019-03-31T04:31:01.791Z,21.65
2019-03-31T04:36:06.176Z,21.65
2019-03-31T04:41:10.507Z,21.65
2019-03-31T04:46:14.855Z,21.66
2019-03-31T04:51:19.167Z,21.63
2019-03-31T04:56:23.507Z,21.63
2019-03-31T05:01:27.823Z,21.59
2019-03-31T05:06:32.282Z,21.58
2019-03-31T05:11:36.589Z,21.58
2019-03-31T05:16:40.930Z,21.56
2019-03-31T05:21:45.260Z,21.56
2019-03-31T05:26:49.537Z,21.54
2019-03-31T05:31:53.838Z,21.53
2019-03-31T05:36:58.123Z,21.53
2019-03-31T05:42:02.437Z,21.52
2019-03-31T05:47:06.747Z,21.52
2019-03-31T05:52:11.070Z,21.52
2019-03-31T05:57:15.407Z,21.52
2019-03-31T06:02:19.696Z,21.47
2019-03-31T06:07:23.983Z,21.44
2019-03-31T06:12:28.305Z,21.44
2019-03-31T06:17:32.617Z,21.46
2019-03-31T06:22:36.984Z,21.46
2019-03-31T06:27:41.320Z,21.45
2019-03-31T06:32:45.754Z,21.45
2019-03-31T06:37:50.083Z,21.44
2019-03-31T06:42:54.364Z,21.44
2019-03-31T06:47:58.652Z,21.44
2019-03-31T06:53:02.997Z,21.44
2019-03-31T06:58:07.335Z,21.44
2019-03-31T07:03:11.658Z,21.44
2019-03-31T07:08:16.019Z,21.43
2019-03-31T07:13:20.339Z,21.43
2019-03-31T07:18:24.730Z,17.19
2019-03-31T07:23:29.122Z,17.99
2019-03-31T07:28:33.440Z,19.42
2019-03-31T07:33:37.789Z,19.42
2019-03-31T07:42:30.809Z,20.21
2019-03-31T07:47:35.364Z,20.29
2019-03-31T07:52:39.821Z,20.23
2019-03-31T07:57:44.315Z,20.23
2019-03-31T08:02:48.683Z,20.46
2019-03-31T08:07:53.037Z,20.58
2019-03-31T08:12:57.388Z,20.58
2019-03-31T08:18:01.797Z,20.63
2019-03-31T08:23:06.191Z,20.68
2019-03-31T08:28:10.548Z,20.68
2019-03-31T08:33:14.871Z,20.71
2019-03-31T08:38:19.211Z,20.73
2019-03-31T08:43:23.554Z,20.76
2019-03-31T08:48:27.919Z,20.76
2019-03-31T08:53:32.284Z,20.77
2019-03-31T08:58:36.648Z,20.78
2019-03-31T09:03:40.984Z,20.78
2019-03-31T09:08:45.310Z,20.78
2019-03-31T09:13:49.642Z,20.80
2019-03-31T09:18:54.029Z,20.81
2019-03-31T09:23:58.365Z,20.81
2019-03-31T09:29:02.713Z,20.81
2019-03-31T09:34:07.085Z,20.82
2019-03-31T09:39:11.431Z,20.85
2019-03-31T09:44:15.860Z,20.86
2019-03-31T09:49:20.230Z,20.88
2019-03-31T09:54:24.548Z,20.90
2019-03-31T09:59:28.896Z,20.90
2019-03-31T10:04:33.237Z,20.95
2019-03-31T10:09:37.591Z,20.99
2019-03-31T10:14:41.920Z,20.99
2019-03-31T10:19:46.311Z,21.09
2019-03-31T10:24:50.675Z,21.08
2019-03-31T10:29:55.023Z,20.99
2019-03-31T10:34:59.429Z,21.02
2019-03-31T10:40:04.068Z,21.03
2019-03-31T10:45:08.577Z,21.06
2019-03-31T10:50:12.930Z,21.17
2019-03-31T10:55:17.379Z,21.12
2019-03-31T11:00:32.824Z,21.09
2019-03-31T11:05:37.158Z,21.09
2019-03-31T11:10:41.546Z,21.08
2019-03-31T11:15:45.988Z,21.04
2019-03-31T11:20:50.431Z,21.04
2019-03-31T11:25:54.959Z,21.02
2019-03-31T11:30:59.306Z,21.02
2019-03-31T11:36:03.768Z,21.09
2019-03-31T11:41:08.086Z,20.99
2019-03-31T11:46:12.506Z,20.98
2019-03-31T11:51:16.846Z,21.01
2019-03-31T11:56:21.191Z,21.04
2019-03-31T12:01:25.529Z,21.06
2019-03-31T12:06:29.952Z,21.07
2019-03-31T12:11:34.308Z,21.06
2019-03-31T12:16:38.718Z,21.06
2019-03-31T12:21:43.062Z,21.12
2019-03-31T12:26:47.417Z,21.11
2019-03-31T12:31:51.824Z,21.11
2019-03-31T12:36:56.192Z,21.14
2019-03-31T12:42:00.542Z,21.16
2019-03-31T12:47:04.908Z,21.16
2019-03-31T12:52:09.270Z,21.20
2019-03-31T12:57:13.685Z,21.20
2019-03-31T13:02:17.994Z,21.20
2019-03-31T13:07:22.308Z,21.20
2019-03-31T13:12:26.689Z,21.25
2019-03-31T13:17:31.040Z,21.27
2019-03-31T13:22:35.390Z,21.31
2019-03-31T13:27:39.729Z,21.33
2019-03-31T13:32:44.078Z,21.33
2019-03-31T13:37:48.481Z,21.34
2019-03-31T13:42:52.921Z,21.45
2019-03-31T13:47:58.837Z,21.45
2019-03-31T13:53:03.263Z,21.32
2019-03-31T13:58:08.645Z,21.29
2019-03-31T14:03:13.338Z,21.37
2019-03-31T14:08:25.698Z,21.37
2019-03-31T14:13:23.741Z,21.34
2019-03-31T14:18:28.068Z,21.34
2019-03-31T14:23:32.362Z,21.33
2019-03-31T14:28:36.692Z,21.33
2019-03-31T14:33:41.079Z,21.33
2019-03-31T14:38:45.412Z,21.32
2019-03-31T14:43:50.033Z,21.34
2019-03-31T14:48:54.455Z,21.34
2019-03-31T14:53:58.825Z,21.34
2019-03-31T14:59:03.174Z,21.34
2019-03-31T15:04:07.603Z,21.32
2019-03-31T15:09:12.151Z,21.31
2019-03-31T15:14:16.593Z,21.31
2019-03-31T15:19:20.937Z,21.31
2019-03-31T15:24:25.362Z,21.33
2019-03-31T15:29:29.801Z,21.30
2019-03-31T15:34:34.127Z,21.30
2019-03-31T15:39:38.452Z,21.32
2019-03-31T15:44:42.803Z,21.30
2019-03-31T15:49:47.130Z,21.32
2019-03-31T15:54:51.465Z,21.34
2019-03-31T15:59:55.918Z,21.32
2019-03-31T16:05:00.407Z,21.33
2019-03-31T16:10:04.636Z,21.33
2019-03-31T16:15:08.427Z,21.33
2019-03-31T16:20:12.270Z,21.31
2019-03-31T16:25:22.184Z,21.31
2019-03-31T16:30:26.060Z,21.28
2019-03-31T16:35:29.849Z,21.28
2019-03-31T16:40:33.695Z,21.36
2019-03-31T16:45:37.507Z,21.53
2019-03-31T16:50:41.326Z,21.50
2019-03-31T16:55:45.154Z,21.54
2019-03-31T17:00:48.931Z,21.48
2019-03-31T17:05:52.724Z,21.50
2019-03-31T17:10:56.519Z,21.51
2019-03-31T17:16:00.347Z,21.84
2019-03-31T17:21:04.166Z,22.15
2019-03-31T17:26:07.957Z,22.32
2019-03-31T17:31:11.744Z,22.35
2019-03-31T17:36:15.602Z,22.18
2019-03-31T17:41:19.371Z,22.28
2019-03-31T17:46:23.148Z,22.16
2019-03-31T17:51:26.931Z,22.15
2019-03-31T17:56:30.745Z,22.13
2019-03-31T18:01:34.556Z,22.13
2019-03-31T18:06:38.331Z,22.11
2019-03-31T18:11:42.105Z,22.06
2019-03-31T18:16:45.887Z,22.06
2019-03-31T18:21:49.674Z,21.98
2019-03-31T18:26:53.440Z,21.98
2019-03-31T18:31:57.230Z,21.95
2019-03-31T18:37:01.008Z,21.92
2019-03-31T18:42:04.839Z,21.90
2019-03-31T18:47:08.629Z,21.90
2019-03-31T18:52:12.420Z,21.94
2019-03-31T18:57:37.292Z,21.85
2019-03-31T19:02:58.917Z,21.86
2019-03-31T19:08:26.320Z,21.86
2019-03-31T19:13:55.720Z,22.01
2019-03-31T19:19:29.627Z,22.10
2019-03-31T19:25:07.451Z,22.13
2019-03-31T19:30:30.189Z,22.06
2019-03-31T19:35:51.979Z,22.02
2019-03-31T19:41:20.524Z,22.02
2019-03-31T19:46:33.704Z,21.99
2019-03-31T19:52:06.543Z,21.99
2019-03-31T19:57:41.969Z,21.99
2019-03-31T20:02:44.825Z,21.92
2019-03-31T20:07:57.461Z,21.86
2019-03-31T20:13:19.041Z,21.86
2019-03-31T20:18:40.499Z,21.82
2019-03-31T20:24:03.276Z,21.84
2019-03-31T20:29:12.662Z,21.81
2019-03-31T20:34:24.994Z,21.81
2019-03-31T20:39:39.853Z,21.80
2019-03-31T20:44:43.614Z,21.82
2019-03-31T20:49:47.426Z,21.82
2019-03-31T20:54:51.223Z,21.81
2019-03-31T20:59:55.007Z,21.81
2019-03-31T21:04:58.809Z,21.81
2019-03-31T21:10:02.593Z,21.78
2019-03-31T21:15:06.668Z,21.78
2019-03-31T21:20:10.424Z,21.78
2019-03-31T21:25:14.194Z,21.78
2019-03-31T21:30:19.177Z,21.76
2019-03-31T21:35:22.928Z,21.74
2019-03-31T21:40:26.729Z,21.75
2019-03-31T21:45:30.526Z,21.75
2019-03-31T21:50:34.596Z,21.85
2019-03-31T21:55:38.432Z,21.74
2019-03-31T22:06:01.071Z,21.70
2019-03-31T22:11:04.892Z,21.72
2019-03-31T22:16:09.743Z,21.70
2019-03-31T22:21:13.538Z,21.70
2019-03-31T22:26:19.582Z,21.68
2019-03-31T22:31:23.029Z,21.70
2019-03-31T22:36:26.876Z,21.70
2019-03-31T22:41:30.674Z,21.68
2019-03-31T22:46:34.455Z,21.68
2019-03-31T22:51:38.229Z,21.70
2019-03-31T22:56:42.597Z,21.70
2019-03-31T23:06:49.333Z,21.70
2019-03-31T23:11:53.118Z,21.71
2019-03-31T23:16:56.895Z,21.71
2019-03-31T23:22:00.716Z,21.70
2019-03-31T23:32:07.275Z,21.72
2019-03-31T23:37:11.115Z,21.72
2019-03-31T23:42:14.913Z,21.70
2019-03-31T23:47:18.651Z,21.71
2019-03-31T23:52:22.615Z,21.70
2019-03-31T23:57:42.328Z,21.69
